Paraisopolis, Brazil
Current Conditions -  °F | °C
As of 7:00 AM on Monday 20 Oct 2014 (Local Time) from SBGW Reporting Station
Broken Clouds Broken Clouds  
Wind Chill: 70°   Ceiling: 3000
Heat Index: 70°   Visibility: 4mi
Dew Point: 64°   Wind: 2mph
Humidity: 83%   Direction: 220°SW
Pressure: 29.97"   Gusts: NA
Location:  22.55°S, 45.78°W
Report Text: SBGW 201000Z 22002KT 6000 BKN030 BKN080 21/18 Q1015
Loading
Personal Weather Stations






























Interactive Weather Map
Tropical Storm Tracking
New forecast layout! Learn more

10-Day Weather Forecast

Advertisements
Track Severe Weather on mobile